sensor_id;sensor_type;location;lat;lon;timestamp;P1;durP1;ratioP1;P2;durP2;ratioP2
43676;SDS011;29275;48.800;18.102;2023-03-04T00:02:52;15.25;;;6.63;;
43676;SDS011;29275;48.800;18.102;2023-03-04T00:05:55;11.48;;;4.85;;
43676;SDS011;29275;48.800;18.102;2023-03-04T00:09:00;10.70;;;5.43;;
43676;SDS011;29275;48.800;18.102;2023-03-04T00:12:15;9.48;;;5.05;;
43676;SDS011;29275;48.800;18.102;2023-03-04T00:15:43;14.02;;;5.20;;
43676;SDS011;29275;48.800;18.102;2023-03-04T00:18:46;13.48;;;5.60;;
43676;SDS011;29275;48.800;18.102;2023-03-04T00:21:53;12.93;;;6.63;;
43676;SDS011;29275;48.800;18.102;2023-03-04T00:25:05;9.75;;;5.18;;
43676;SDS011;29275;48.800;18.102;2023-03-04T00:28:11;14.07;;;6.45;;
43676;SDS011;29275;48.800;18.102;2023-03-04T00:31:18;18.67;;;8.65;;
43676;SDS011;29275;48.800;18.102;2023-03-04T00:34:23;19.20;;;5.43;;
43676;SDS011;29275;48.800;18.102;2023-03-04T00:37:29;12.23;;;5.03;;
43676;SDS011;29275;48.800;18.102;2023-03-04T00:40:32;10.73;;;5.75;;
43676;SDS011;29275;48.800;18.102;2023-03-04T00:43:39;10.35;;;4.80;;
43676;SDS011;29275;48.800;18.102;2023-03-04T00:46:42;10.18;;;5.70;;
43676;SDS011;29275;48.800;18.102;2023-03-04T00:49:50;13.57;;;5.65;;
43676;SDS011;29275;48.800;18.102;2023-03-04T00:52:57;10.57;;;4.60;;
43676;SDS011;29275;48.800;18.102;2023-03-04T00:56:03;8.52;;;5.38;;
43676;SDS011;29275;48.800;18.102;2023-03-04T00:59:06;12.05;;;5.10;;
43676;SDS011;29275;48.800;18.102;2023-03-04T01:02:10;8.82;;;4.35;;
43676;SDS011;29275;48.800;18.102;2023-03-04T01:05:20;10.02;;;5.10;;
43676;SDS011;29275;48.800;18.102;2023-03-04T01:08:35;12.98;;;5.57;;
43676;SDS011;29275;48.800;18.102;2023-03-04T01:11:42;12.85;;;4.72;;
43676;SDS011;29275;48.800;18.102;2023-03-04T01:14:46;7.68;;;3.92;;
43676;SDS011;29275;48.800;18.102;2023-03-04T01:17:51;8.00;;;4.30;;
43676;SDS011;29275;48.800;18.102;2023-03-04T01:20:56;9.00;;;4.00;;
43676;SDS011;29275;48.800;18.102;2023-03-04T01:24:06;11.90;;;4.10;;
43676;SDS011;29275;48.800;18.102;2023-03-04T01:27:20;9.85;;;3.25;;
43676;SDS011;29275;48.800;18.102;2023-03-04T01:30:24;11.43;;;5.68;;
43676;SDS011;29275;48.800;18.102;2023-03-04T01:33:32;9.15;;;4.90;;
43676;SDS011;29275;48.800;18.102;2023-03-04T01:36:35;11.15;;;4.68;;
43676;SDS011;29275;48.800;18.102;2023-03-04T01:39:39;9.10;;;4.00;;
43676;SDS011;29275;48.800;18.102;2023-03-04T01:42:42;10.35;;;4.82;;
43676;SDS011;29275;48.800;18.102;2023-03-04T01:45:53;6.47;;;4.00;;
43676;SDS011;29275;48.800;18.102;2023-03-04T01:49:05;7.57;;;3.75;;
43676;SDS011;29275;48.800;18.102;2023-03-04T01:52:22;7.00;;;3.63;;
43676;SDS011;29275;48.800;18.102;2023-03-04T01:55:33;7.70;;;2.55;;
43676;SDS011;29275;48.800;18.102;2023-03-04T01:58:49;8.45;;;3.38;;
43676;SDS011;29275;48.800;18.102;2023-03-04T02:02:20;14.38;;;5.30;;
43676;SDS011;29275;48.800;18.102;2023-03-04T02:05:23;11.98;;;4.07;;
43676;SDS011;29275;48.800;18.102;2023-03-04T02:08:26;16.35;;;6.13;;
43676;SDS011;29275;48.800;18.102;2023-03-04T02:11:32;8.55;;;4.75;;
43676;SDS011;29275;48.800;18.102;2023-03-04T02:14:49;9.40;;;4.20;;
43676;SDS011;29275;48.800;18.102;2023-03-04T02:17:55;4.25;;;2.95;;
43676;SDS011;29275;48.800;18.102;2023-03-04T02:21:06;6.78;;;4.03;;
43676;SDS011;29275;48.800;18.102;2023-03-04T02:24:32;9.65;;;3.58;;
43676;SDS011;29275;48.800;18.102;2023-03-04T02:27:41;9.98;;;4.53;;
43676;SDS011;29275;48.800;18.102;2023-03-04T02:30:49;6.13;;;3.42;;
43676;SDS011;29275;48.800;18.102;2023-03-04T02:33:53;10.32;;;4.35;;
43676;SDS011;29275;48.800;18.102;2023-03-04T02:37:05;7.57;;;4.22;;
43676;SDS011;29275;48.800;18.102;2023-03-04T02:40:25;6.60;;;3.38;;
43676;SDS011;29275;48.800;18.102;2023-03-04T02:43:36;7.88;;;4.00;;
43676;SDS011;29275;48.800;18.102;2023-03-04T02:47:04;9.32;;;4.57;;
43676;SDS011;29275;48.800;18.102;2023-03-04T02:50:13;16.58;;;6.72;;
43676;SDS011;29275;48.800;18.102;2023-03-04T02:53:15;16.15;;;5.32;;
43676;SDS011;29275;48.800;18.102;2023-03-04T02:56:20;16.52;;;7.22;;
43676;SDS011;29275;48.800;18.102;2023-03-04T02:59:24;13.30;;;5.80;;
43676;SDS011;29275;48.800;18.102;2023-03-04T03:02:30;17.98;;;5.85;;
43676;SDS011;29275;48.800;18.102;2023-03-04T03:05:37;11.52;;;6.03;;
43676;SDS011;29275;48.800;18.102;2023-03-04T03:08:51;12.55;;;5.90;;
43676;SDS011;29275;48.800;18.102;2023-03-04T03:12:00;9.02;;;5.07;;
43676;SDS011;29275;48.800;18.102;2023-03-04T03:15:05;17.42;;;6.65;;
43676;SDS011;29275;48.800;18.102;2023-03-04T03:18:15;15.98;;;6.65;;
43676;SDS011;29275;48.800;18.102;2023-03-04T03:21:24;14.02;;;8.23;;
43676;SDS011;29275;48.800;18.102;2023-03-04T03:24:27;11.32;;;7.25;;
43676;SDS011;29275;48.800;18.102;2023-03-04T03:27:45;10.05;;;5.15;;
43676;SDS011;29275;48.800;18.102;2023-03-04T03:30:54;15.90;;;7.30;;
43676;SDS011;29275;48.800;18.102;2023-03-04T03:33:57;12.90;;;6.32;;
43676;SDS011;29275;48.800;18.102;2023-03-04T03:37:09;21.85;;;7.45;;
43676;SDS011;29275;48.800;18.102;2023-03-04T03:40:17;20.05;;;10.02;;
43676;SDS011;29275;48.800;18.102;2023-03-04T03:43:20;10.15;;;6.03;;
43676;SDS011;29275;48.800;18.102;2023-03-04T03:46:23;17.35;;;6.93;;
43676;SDS011;29275;48.800;18.102;2023-03-04T03:49:29;12.40;;;6.10;;
43676;SDS011;29275;48.800;18.102;2023-03-04T03:52:32;13.48;;;5.88;;
43676;SDS011;29275;48.800;18.102;2023-03-04T03:58:48;14.85;;;7.13;;
43676;SDS011;29275;48.800;18.102;2023-03-04T04:01:51;17.25;;;6.28;;
43676;SDS011;29275;48.800;18.102;2023-03-04T04:04:54;12.85;;;5.07;;
43676;SDS011;29275;48.800;18.102;2023-03-04T04:07:58;11.05;;;5.70;;
43676;SDS011;29275;48.800;18.102;2023-03-04T04:11:04;16.02;;;6.80;;
43676;SDS011;29275;48.800;18.102;2023-03-04T04:14:12;11.05;;;6.35;;
43676;SDS011;29275;48.800;18.102;2023-03-04T04:17:24;15.85;;;7.03;;
43676;SDS011;29275;48.800;18.102;2023-03-04T04:20:30;17.02;;;8.07;;
43676;SDS011;29275;48.800;18.102;2023-03-04T04:23:39;22.70;;;7.40;;
43676;SDS011;29275;48.800;18.102;2023-03-04T04:26:45;16.65;;;7.82;;
43676;SDS011;29275;48.800;18.102;2023-03-04T04:29:57;24.85;;;6.70;;
43676;SDS011;29275;48.800;18.102;2023-03-04T04:33:05;12.90;;;6.15;;
43676;SDS011;29275;48.800;18.102;2023-03-04T04:36:15;13.30;;;5.65;;
43676;SDS011;29275;48.800;18.102;2023-03-04T04:39:20;13.13;;;6.18;;
43676;SDS011;29275;48.800;18.102;2023-03-04T04:42:23;19.38;;;7.05;;
43676;SDS011;29275;48.800;18.102;2023-03-04T04:45:30;15.85;;;5.53;;
43676;SDS011;29275;48.800;18.102;2023-03-04T04:48:46;16.52;;;7.10;;
43676;SDS011;29275;48.800;18.102;2023-03-04T04:51:52;9.02;;;5.35;;
43676;SDS011;29275;48.800;18.102;2023-03-04T04:55:03;10.48;;;6.30;;
43676;SDS011;29275;48.800;18.102;2023-03-04T04:58:14;20.20;;;7.72;;
43676;SDS011;29275;48.800;18.102;2023-03-04T05:01:36;14.60;;;7.25;;
43676;SDS011;29275;48.800;18.102;2023-03-04T05:04:50;13.00;;;6.47;;
43676;SDS011;29275;48.800;18.102;2023-03-04T05:08:04;13.15;;;7.18;;
43676;SDS011;29275;48.800;18.102;2023-03-04T05:11:10;16.52;;;8.25;;
43676;SDS011;29275;48.800;18.102;2023-03-04T05:14:22;12.88;;;6.82;;
43676;SDS011;29275;48.800;18.102;2023-03-04T05:17:26;11.90;;;7.43;;
43676;SDS011;29275;48.800;18.102;2023-03-04T05:20:32;11.75;;;5.65;;
43676;SDS011;29275;48.800;18.102;2023-03-04T05:23:39;12.23;;;6.60;;
43676;SDS011;29275;48.800;18.102;2023-03-04T05:26:46;14.02;;;6.63;;
43676;SDS011;29275;48.800;18.102;2023-03-04T05:29:49;14.00;;;9.23;;
43676;SDS011;29275;48.800;18.102;2023-03-04T05:32:53;14.18;;;8.68;;
43676;SDS011;29275;48.800;18.102;2023-03-04T05:35:56;13.90;;;8.02;;
43676;SDS011;29275;48.800;18.102;2023-03-04T05:39:01;21.10;;;9.18;;
43676;SDS011;29275;48.800;18.102;2023-03-04T05:42:05;17.58;;;8.68;;
43676;SDS011;29275;48.800;18.102;2023-03-04T05:45:10;18.58;;;8.38;;
43676;SDS011;29275;48.800;18.102;2023-03-04T05:48:26;15.95;;;7.78;;
43676;SDS011;29275;48.800;18.102;2023-03-04T05:51:30;18.70;;;8.45;;
43676;SDS011;29275;48.800;18.102;2023-03-04T05:54:33;26.83;;;9.05;;
43676;SDS011;29275;48.800;18.102;2023-03-04T05:57:41;10.95;;;7.90;;
43676;SDS011;29275;48.800;18.102;2023-03-04T06:00:49;17.63;;;9.32;;
43676;SDS011;29275;48.800;18.102;2023-03-04T06:03:58;16.08;;;8.75;;
43676;SDS011;29275;48.800;18.102;2023-03-04T06:07:06;19.02;;;7.78;;
43676;SDS011;29275;48.800;18.102;2023-03-04T06:10:15;15.32;;;7.47;;
43676;SDS011;29275;48.800;18.102;2023-03-04T06:13:32;15.60;;;7.05;;
43676;SDS011;29275;48.800;18.102;2023-03-04T06:16:41;16.08;;;6.60;;
43676;SDS011;29275;48.800;18.102;2023-03-04T06:19:56;15.07;;;7.18;;
43676;SDS011;29275;48.800;18.102;2023-03-04T06:23:02;16.63;;;8.85;;
43676;SDS011;29275;48.800;18.102;2023-03-04T06:26:09;11.10;;;6.40;;
43676;SDS011;29275;48.800;18.102;2023-03-04T06:29:26;12.30;;;7.85;;
43676;SDS011;29275;48.800;18.102;2023-03-04T06:32:32;10.57;;;5.72;;
43676;SDS011;29275;48.800;18.102;2023-03-04T06:35:35;14.35;;;7.55;;
43676;SDS011;29275;48.800;18.102;2023-03-04T06:38:43;17.23;;;7.07;;
43676;SDS011;29275;48.800;18.102;2023-03-04T06:41:49;10.68;;;5.97;;
43676;SDS011;29275;48.800;18.102;2023-03-04T06:44:58;18.60;;;6.10;;
43676;SDS011;29275;48.800;18.102;2023-03-04T06:48:04;14.98;;;6.75;;
43676;SDS011;29275;48.800;18.102;2023-03-04T06:51:20;12.93;;;5.63;;
43676;SDS011;29275;48.800;18.102;2023-03-04T06:54:29;16.98;;;6.57;;
43676;SDS011;29275;48.800;18.102;2023-03-04T06:57:36;12.05;;;6.15;;
43676;SDS011;29275;48.800;18.102;2023-03-04T07:00:42;11.70;;;6.33;;
43676;SDS011;29275;48.800;18.102;2023-03-04T07:03:50;17.08;;;8.15;;
43676;SDS011;29275;48.800;18.102;2023-03-04T07:07:02;13.45;;;5.57;;
43676;SDS011;29275;48.800;18.102;2023-03-04T07:10:05;15.45;;;6.28;;
43676;SDS011;29275;48.800;18.102;2023-03-04T07:13:11;11.70;;;6.22;;
43676;SDS011;29275;48.800;18.102;2023-03-04T07:16:23;20.77;;;7.85;;
43676;SDS011;29275;48.800;18.102;2023-03-04T07:19:26;15.23;;;7.75;;
43676;SDS011;29275;48.800;18.102;2023-03-04T07:22:37;15.32;;;8.23;;
43676;SDS011;29275;48.800;18.102;2023-03-04T07:25:47;18.05;;;6.93;;
43676;SDS011;29275;48.800;18.102;2023-03-04T07:28:51;8.82;;;5.32;;
43676;SDS011;29275;48.800;18.102;2023-03-04T07:31:59;15.43;;;6.90;;
43676;SDS011;29275;48.800;18.102;2023-03-04T07:35:02;12.63;;;5.75;;
43676;SDS011;29275;48.800;18.102;2023-03-04T07:38:09;6.23;;;4.33;;
43676;SDS011;29275;48.800;18.102;2023-03-04T07:41:11;14.10;;;6.53;;
43676;SDS011;29275;48.800;18.102;2023-03-04T07:44:14;14.38;;;6.68;;
43676;SDS011;29275;48.800;18.102;2023-03-04T07:47:21;21.70;;;6.88;;
43676;SDS011;29275;48.800;18.102;2023-03-04T07:50:34;18.42;;;7.05;;
43676;SDS011;29275;48.800;18.102;2023-03-04T07:53:41;17.10;;;6.05;;
43676;SDS011;29275;48.800;18.102;2023-03-04T07:56:50;21.35;;;6.00;;
43676;SDS011;29275;48.800;18.102;2023-03-04T08:00:02;14.15;;;6.40;;
43676;SDS011;29275;48.800;18.102;2023-03-04T08:03:13;15.23;;;5.97;;
43676;SDS011;29275;48.800;18.102;2023-03-04T08:06:22;10.90;;;5.67;;
43676;SDS011;29275;48.800;18.102;2023-03-04T08:09:26;10.07;;;6.00;;
43676;SDS011;29275;48.800;18.102;2023-03-04T08:12:32;11.13;;;5.32;;
43676;SDS011;29275;48.800;18.102;2023-03-04T08:15:38;19.45;;;6.45;;
43676;SDS011;29275;48.800;18.102;2023-03-04T08:18:48;10.85;;;5.35;;
43676;SDS011;29275;48.800;18.102;2023-03-04T08:22:00;10.02;;;5.20;;
43676;SDS011;29275;48.800;18.102;2023-03-04T08:25:04;18.25;;;6.22;;
43676;SDS011;29275;48.800;18.102;2023-03-04T08:28:10;14.80;;;7.25;;
43676;SDS011;29275;48.800;18.102;2023-03-04T08:31:17;14.13;;;5.40;;
43676;SDS011;29275;48.800;18.102;2023-03-04T08:34:24;14.88;;;6.05;;
43676;SDS011;29275;48.800;18.102;2023-03-04T08:37:35;15.90;;;6.35;;
43676;SDS011;29275;48.800;18.102;2023-03-04T08:40:40;15.75;;;6.10;;
43676;SDS011;29275;48.800;18.102;2023-03-04T08:43:47;14.00;;;6.07;;
43676;SDS011;29275;48.800;18.102;2023-03-04T08:46:52;11.50;;;4.88;;
43676;SDS011;29275;48.800;18.102;2023-03-04T08:49:56;14.75;;;6.60;;
43676;SDS011;29275;48.800;18.102;2023-03-04T08:53:02;15.17;;;6.23;;
43676;SDS011;29275;48.800;18.102;2023-03-04T08:56:06;16.42;;;7.43;;
43676;SDS011;29275;48.800;18.102;2023-03-04T08:59:12;10.13;;;4.93;;
43676;SDS011;29275;48.800;18.102;2023-03-04T09:02:16;19.08;;;8.25;;
43676;SDS011;29275;48.800;18.102;2023-03-04T09:05:30;14.50;;;5.93;;
43676;SDS011;29275;48.800;18.102;2023-03-04T09:08:33;13.50;;;6.53;;
43676;SDS011;29275;48.800;18.102;2023-03-04T09:11:37;16.30;;;7.35;;
43676;SDS011;29275;48.800;18.102;2023-03-04T09:14:40;18.05;;;6.90;;
43676;SDS011;29275;48.800;18.102;2023-03-04T09:18:08;13.57;;;5.97;;
43676;SDS011;29275;48.800;18.102;2023-03-04T09:21:10;11.48;;;5.43;;
43676;SDS011;29275;48.800;18.102;2023-03-04T09:24:15;20.13;;;7.97;;
43676;SDS011;29275;48.800;18.102;2023-03-04T09:27:23;14.00;;;6.75;;
43676;SDS011;29275;48.800;18.102;2023-03-04T09:30:29;18.98;;;7.05;;
43676;SDS011;29275;48.800;18.102;2023-03-04T09:33:39;12.27;;;6.35;;
43676;SDS011;29275;48.800;18.102;2023-03-04T09:36:44;12.68;;;6.50;;
43676;SDS011;29275;48.800;18.102;2023-03-04T09:40:01;12.10;;;6.10;;
43676;SDS011;29275;48.800;18.102;2023-03-04T09:43:04;12.75;;;5.93;;
43676;SDS011;29275;48.800;18.102;2023-03-04T09:46:38;13.13;;;5.97;;
43676;SDS011;29275;48.800;18.102;2023-03-04T09:50:06;11.73;;;5.25;;
43676;SDS011;29275;48.800;18.102;2023-03-04T09:53:22;13.60;;;6.35;;
43676;SDS011;29275;48.800;18.102;2023-03-04T09:56:32;11.50;;;6.13;;
43676;SDS011;29275;48.800;18.102;2023-03-04T10:00:01;25.17;;;7.88;;
43676;SDS011;29275;48.800;18.102;2023-03-04T10:03:19;14.63;;;7.13;;
43676;SDS011;29275;48.800;18.102;2023-03-04T10:06:27;11.65;;;6.30;;
43676;SDS011;29275;48.800;18.102;2023-03-04T10:09:45;16.90;;;6.95;;
43676;SDS011;29275;48.800;18.102;2023-03-04T10:13:14;16.02;;;6.68;;
43676;SDS011;29275;48.800;18.102;2023-03-04T10:16:22;18.83;;;7.53;;
43676;SDS011;29275;48.800;18.102;2023-03-04T10:19:36;14.70;;;6.22;;
43676;SDS011;29275;48.800;18.102;2023-03-04T10:23:10;10.85;;;6.05;;
43676;SDS011;29275;48.800;18.102;2023-03-04T10:26:30;15.63;;;6.13;;
43676;SDS011;29275;48.800;18.102;2023-03-04T10:29:34;17.80;;;8.77;;
43676;SDS011;29275;48.800;18.102;2023-03-04T10:32:44;18.73;;;6.75;;
43676;SDS011;29275;48.800;18.102;2023-03-04T10:39:28;13.25;;;6.20;;
43676;SDS011;29275;48.800;18.102;2023-03-04T10:42:39;18.60;;;6.32;;
43676;SDS011;29275;48.800;18.102;2023-03-04T10:45:43;13.35;;;7.40;;
43676;SDS011;29275;48.800;18.102;2023-03-04T10:48:53;18.40;;;8.07;;
43676;SDS011;29275;48.800;18.102;2023-03-04T10:52:00;17.10;;;8.15;;
43676;SDS011;29275;48.800;18.102;2023-03-04T10:55:19;20.60;;;8.88;;
43676;SDS011;29275;48.800;18.102;2023-03-04T10:58:42;21.67;;;9.98;;
43676;SDS011;29275;48.800;18.102;2023-03-04T11:01:49;17.38;;;8.77;;
43676;SDS011;29275;48.800;18.102;2023-03-04T11:08:15;21.65;;;11.27;;
43676;SDS011;29275;48.800;18.102;2023-03-04T11:11:41;18.63;;;7.55;;
43676;SDS011;29275;48.800;18.102;2023-03-04T11:15:02;21.02;;;10.32;;
43676;SDS011;29275;48.800;18.102;2023-03-04T11:18:08;19.30;;;8.75;;
43676;SDS011;29275;48.800;18.102;2023-03-04T11:21:21;17.98;;;8.82;;
43676;SDS011;29275;48.800;18.102;2023-03-04T11:24:29;18.95;;;8.40;;
43676;SDS011;29275;48.800;18.102;2023-03-04T11:27:45;17.52;;;9.23;;
43676;SDS011;29275;48.800;18.102;2023-03-04T11:31:00;17.40;;;8.73;;
43676;SDS011;29275;48.800;18.102;2023-03-04T11:34:23;16.88;;;8.52;;
43676;SDS011;29275;48.800;18.102;2023-03-04T11:38:26;17.90;;;8.27;;
43676;SDS011;29275;48.800;18.102;2023-03-04T11:41:34;16.50;;;7.53;;
43676;SDS011;29275;48.800;18.102;2023-03-04T11:44:50;16.73;;;7.70;;
43676;SDS011;29275;48.800;18.102;2023-03-04T11:51:10;18.65;;;8.52;;
43676;SDS011;29275;48.800;18.102;2023-03-04T12:01:54;17.65;;;7.22;;
43676;SDS011;29275;48.800;18.102;2023-03-04T12:08:40;19.45;;;6.80;;
43676;SDS011;29275;48.800;18.102;2023-03-04T12:25:39;16.77;;;7.75;;
43676;SDS011;29275;48.800;18.102;2023-03-04T12:29:33;12.40;;;7.00;;
43676;SDS011;29275;48.800;18.102;2023-03-04T12:43:31;14.52;;;6.97;;
43676;SDS011;29275;48.800;18.102;2023-03-04T12:47:02;16.25;;;8.13;;
43676;SDS011;29275;48.800;18.102;2023-03-04T12:57:10;20.83;;;8.52;;
43676;SDS011;29275;48.800;18.102;2023-03-04T13:08:04;20.10;;;7.47;;
43676;SDS011;29275;48.800;18.102;2023-03-04T13:14:35;14.52;;;7.63;;
43676;SDS011;29275;48.800;18.102;2023-03-04T13:18:28;10.33;;;5.77;;
43676;SDS011;29275;48.800;18.102;2023-03-04T13:21:29;11.57;;;6.95;;
43676;SDS011;29275;48.800;18.102;2023-03-04T13:24:46;12.40;;;5.70;;
43676;SDS011;29275;48.800;18.102;2023-03-04T13:34:41;12.48;;;6.20;;
43676;SDS011;29275;48.800;18.102;2023-03-04T13:37:55;17.80;;;7.75;;
43676;SDS011;29275;48.800;18.102;2023-03-04T13:47:49;20.45;;;8.18;;
43676;SDS011;29275;48.800;18.102;2023-03-04T13:50:53;12.93;;;5.72;;
43676;SDS011;29275;48.800;18.102;2023-03-04T13:57:16;12.45;;;5.70;;
43676;SDS011;29275;48.800;18.102;2023-03-04T14:00:23;9.25;;;6.22;;
43676;SDS011;29275;48.800;18.102;2023-03-04T14:03:29;16.25;;;6.53;;
43676;SDS011;29275;48.800;18.102;2023-03-04T14:06:40;17.15;;;6.90;;
43676;SDS011;29275;48.800;18.102;2023-03-04T14:13:34;11.30;;;5.82;;
43676;SDS011;29275;48.800;18.102;2023-03-04T14:16:47;9.85;;;5.82;;
43676;SDS011;29275;48.800;18.102;2023-03-04T14:19:59;10.50;;;4.97;;
43676;SDS011;29275;48.800;18.102;2023-03-04T14:23:03;13.68;;;5.65;;
43676;SDS011;29275;48.800;18.102;2023-03-04T14:26:27;11.45;;;6.22;;
43676;SDS011;29275;48.800;18.102;2023-03-04T14:29:32;10.32;;;5.55;;
43676;SDS011;29275;48.800;18.102;2023-03-04T14:32:34;10.38;;;5.15;;
43676;SDS011;29275;48.800;18.102;2023-03-04T14:35:38;11.90;;;6.00;;
43676;SDS011;29275;48.800;18.102;2023-03-04T14:38:57;7.40;;;3.78;;
43676;SDS011;29275;48.800;18.102;2023-03-04T14:42:06;11.82;;;4.90;;
43676;SDS011;29275;48.800;18.102;2023-03-04T14:45:15;15.60;;;5.10;;
43676;SDS011;29275;48.800;18.102;2023-03-04T14:48:27;10.23;;;5.43;;
43676;SDS011;29275;48.800;18.102;2023-03-04T14:51:42;8.70;;;4.57;;
43676;SDS011;29275;48.800;18.102;2023-03-04T14:54:58;10.02;;;4.95;;
43676;SDS011;29275;48.800;18.102;2023-03-04T14:58:20;11.38;;;5.80;;
43676;SDS011;29275;48.800;18.102;2023-03-04T15:01:34;10.45;;;3.92;;
43676;SDS011;29275;48.800;18.102;2023-03-04T15:04:43;9.98;;;4.53;;
43676;SDS011;29275;48.800;18.102;2023-03-04T15:07:57;11.10;;;3.17;;
43676;SDS011;29275;48.800;18.102;2023-03-04T15:11:51;5.35;;;2.60;;
43676;SDS011;29275;48.800;18.102;2023-03-04T15:19:02;5.80;;;2.67;;
43676;SDS011;29275;48.800;18.102;2023-03-04T15:22:26;4.80;;;2.55;;
43676;SDS011;29275;48.800;18.102;2023-03-04T15:25:41;4.63;;;2.20;;
43676;SDS011;29275;48.800;18.102;2023-03-04T15:28:47;6.50;;;2.85;;
43676;SDS011;29275;48.800;18.102;2023-03-04T15:31:53;5.82;;;2.63;;
43676;SDS011;29275;48.800;18.102;2023-03-04T15:34:59;6.15;;;2.97;;
43676;SDS011;29275;48.800;18.102;2023-03-04T15:38:05;4.22;;;2.42;;
43676;SDS011;29275;48.800;18.102;2023-03-04T15:41:10;8.00;;;2.72;;
43676;SDS011;29275;48.800;18.102;2023-03-04T15:44:19;5.70;;;3.10;;
43676;SDS011;29275;48.800;18.102;2023-03-04T15:47:25;5.45;;;3.22;;
43676;SDS011;29275;48.800;18.102;2023-03-04T15:50:29;8.15;;;3.03;;
43676;SDS011;29275;48.800;18.102;2023-03-04T15:53:36;6.28;;;2.38;;
43676;SDS011;29275;48.800;18.102;2023-03-04T15:56:41;2.20;;;1.80;;
43676;SDS011;29275;48.800;18.102;2023-03-04T15:59:44;4.35;;;2.45;;
43676;SDS011;29275;48.800;18.102;2023-03-04T16:03:00;5.28;;;2.13;;
43676;SDS011;29275;48.800;18.102;2023-03-04T16:06:13;4.03;;;2.45;;
43676;SDS011;29275;48.800;18.102;2023-03-04T16:09:25;6.55;;;2.75;;
43676;SDS011;29275;48.800;18.102;2023-03-04T16:12:40;5.95;;;2.72;;
43676;SDS011;29275;48.800;18.102;2023-03-04T16:15:46;5.85;;;2.70;;
43676;SDS011;29275;48.800;18.102;2023-03-04T16:18:59;9.80;;;3.78;;
43676;SDS011;29275;48.800;18.102;2023-03-04T16:22:02;6.47;;;3.35;;
43676;SDS011;29275;48.800;18.102;2023-03-04T16:25:07;8.88;;;2.42;;
43676;SDS011;29275;48.800;18.102;2023-03-04T16:28:23;3.47;;;2.35;;
43676;SDS011;29275;48.800;18.102;2023-03-04T16:31:29;5.87;;;2.50;;
43676;SDS011;29275;48.800;18.102;2023-03-04T16:34:32;6.18;;;2.95;;
43676;SDS011;29275;48.800;18.102;2023-03-04T16:37:35;2.78;;;1.50;;
43676;SDS011;29275;48.800;18.102;2023-03-04T16:40:40;2.55;;;1.65;;
43676;SDS011;29275;48.800;18.102;2023-03-04T16:43:44;3.63;;;2.05;;
43676;SDS011;29275;48.800;18.102;2023-03-04T16:46:57;5.70;;;2.63;;
43676;SDS011;29275;48.800;18.102;2023-03-04T16:50:01;3.42;;;1.73;;
43676;SDS011;29275;48.800;18.102;2023-03-04T16:56:40;4.85;;;2.05;;
43676;SDS011;29275;48.800;18.102;2023-03-04T16:59:50;9.07;;;2.53;;
43676;SDS011;29275;48.800;18.102;2023-03-04T17:06:01;5.55;;;2.33;;
43676;SDS011;29275;48.800;18.102;2023-03-04T17:09:10;4.45;;;2.35;;
43676;SDS011;29275;48.800;18.102;2023-03-04T17:12:16;4.63;;;1.73;;
43676;SDS011;29275;48.800;18.102;2023-03-04T17:15:19;7.25;;;2.55;;
43676;SDS011;29275;48.800;18.102;2023-03-04T17:18:28;4.07;;;1.77;;
43676;SDS011;29275;48.800;18.102;2023-03-04T17:21:43;5.45;;;2.13;;
43676;SDS011;29275;48.800;18.102;2023-03-04T17:24:53;5.57;;;3.00;;
43676;SDS011;29275;48.800;18.102;2023-03-04T17:27:56;3.05;;;1.55;;
43676;SDS011;29275;48.800;18.102;2023-03-04T17:30:59;8.27;;;2.10;;
43676;SDS011;29275;48.800;18.102;2023-03-04T17:34:03;4.68;;;2.58;;
43676;SDS011;29275;48.800;18.102;2023-03-04T17:37:09;2.13;;;1.23;;
43676;SDS011;29275;48.800;18.102;2023-03-04T17:40:13;3.25;;;1.52;;
43676;SDS011;29275;48.800;18.102;2023-03-04T17:43:20;3.13;;;1.42;;
43676;SDS011;29275;48.800;18.102;2023-03-04T17:46:28;5.25;;;2.22;;
43676;SDS011;29275;48.800;18.102;2023-03-04T17:49:42;6.55;;;2.30;;
43676;SDS011;29275;48.800;18.102;2023-03-04T17:52:50;3.63;;;1.80;;
43676;SDS011;29275;48.800;18.102;2023-03-04T17:55:54;5.95;;;2.75;;
43676;SDS011;29275;48.800;18.102;2023-03-04T17:59:03;6.13;;;2.78;;
43676;SDS011;29275;48.800;18.102;2023-03-04T18:02:15;5.55;;;2.22;;
43676;SDS011;29275;48.800;18.102;2023-03-04T18:05:28;4.03;;;2.33;;
43676;SDS011;29275;48.800;18.102;2023-03-04T18:08:34;6.13;;;2.92;;
43676;SDS011;29275;48.800;18.102;2023-03-04T18:11:54;4.03;;;2.08;;
43676;SDS011;29275;48.800;18.102;2023-03-04T18:14:59;8.07;;;3.75;;
43676;SDS011;29275;48.800;18.102;2023-03-04T18:18:06;5.28;;;2.50;;
43676;SDS011;29275;48.800;18.102;2023-03-04T18:21:12;5.20;;;2.65;;
43676;SDS011;29275;48.800;18.102;2023-03-04T18:24:24;16.83;;;7.65;;
43676;SDS011;29275;48.800;18.102;2023-03-04T18:27:32;8.95;;;4.97;;
43676;SDS011;29275;48.800;18.102;2023-03-04T18:30:40;24.92;;;12.88;;
43676;SDS011;29275;48.800;18.102;2023-03-04T18:33:43;9.05;;;5.38;;
43676;SDS011;29275;48.800;18.102;2023-03-04T18:36:54;6.97;;;3.58;;
43676;SDS011;29275;48.800;18.102;2023-03-04T18:40:05;5.50;;;3.43;;
43676;SDS011;29275;48.800;18.102;2023-03-04T18:43:10;6.70;;;3.17;;
43676;SDS011;29275;48.800;18.102;2023-03-04T18:46:19;7.72;;;4.07;;
43676;SDS011;29275;48.800;18.102;2023-03-04T18:49:29;6.18;;;3.67;;
43676;SDS011;29275;48.800;18.102;2023-03-04T18:52:32;7.32;;;3.13;;
43676;SDS011;29275;48.800;18.102;2023-03-04T18:55:35;5.05;;;3.13;;
43676;SDS011;29275;48.800;18.102;2023-03-04T18:58:44;6.47;;;2.25;;
43676;SDS011;29275;48.800;18.102;2023-03-04T19:01:50;7.53;;;3.33;;
43676;SDS011;29275;48.800;18.102;2023-03-04T19:05:10;5.53;;;2.80;;
43676;SDS011;29275;48.800;18.102;2023-03-04T19:08:28;6.25;;;3.38;;
43676;SDS011;29275;48.800;18.102;2023-03-04T19:11:31;7.65;;;4.05;;
43676;SDS011;29275;48.800;18.102;2023-03-04T19:14:34;11.40;;;5.78;;
43676;SDS011;29275;48.800;18.102;2023-03-04T19:17:40;8.07;;;4.20;;
43676;SDS011;29275;48.800;18.102;2023-03-04T19:20:57;10.82;;;5.45;;
43676;SDS011;29275;48.800;18.102;2023-03-04T19:24:06;16.63;;;8.02;;
43676;SDS011;29275;48.800;18.102;2023-03-04T19:30:16;8.70;;;3.58;;
43676;SDS011;29275;48.800;18.102;2023-03-04T19:33:22;8.52;;;3.58;;
43676;SDS011;29275;48.800;18.102;2023-03-04T19:36:30;8.77;;;3.83;;
43676;SDS011;29275;48.800;18.102;2023-03-04T19:39:41;7.30;;;4.07;;
43676;SDS011;29275;48.800;18.102;2023-03-04T19:42:45;8.32;;;3.53;;
43676;SDS011;29275;48.800;18.102;2023-03-04T19:45:53;7.72;;;3.50;;
43676;SDS011;29275;48.800;18.102;2023-03-04T19:49:01;8.18;;;3.38;;
43676;SDS011;29275;48.800;18.102;2023-03-04T19:52:05;7.07;;;4.45;;
43676;SDS011;29275;48.800;18.102;2023-03-04T20:01:33;8.48;;;4.05;;
43676;SDS011;29275;48.800;18.102;2023-03-04T20:04:41;7.80;;;4.32;;
43676;SDS011;29275;48.800;18.102;2023-03-04T20:07:44;8.15;;;3.65;;
43676;SDS011;29275;48.800;18.102;2023-03-04T20:10:54;8.60;;;4.57;;
43676;SDS011;29275;48.800;18.102;2023-03-04T20:14:01;5.13;;;3.13;;
43676;SDS011;29275;48.800;18.102;2023-03-04T20:17:11;8.05;;;3.67;;
43676;SDS011;29275;48.800;18.102;2023-03-04T20:20:19;9.40;;;4.05;;
43676;SDS011;29275;48.800;18.102;2023-03-04T20:23:25;7.43;;;4.10;;